Middenmeer Aerodrome

EHMM · Holanda do Norte, Países Baixos

História da METAR EHMM · Middenmeer Aerodrome

Abaixo você vê METARs dos últimos dias. Selecione um ano para navegar pelos METARs mais antigos, a partir do ano 2007.

29 de fevereiro de 2024

Hora Código Clima Temp. Visibilidade Tecto Vento METAR/SPECI
16:35
I
9 °C 10 km+ 700 ft 170° 170° 14 kt METAR EHKD 291535Z AUTO 17014KT 9999 BKN007 BKN008 09/08 Q1004 GRN TEMPO 4500 DZ SCT005 OVC006
16:31
I
9 °C 10 km+ 600 ft 180° 180° 13 kt METAR EHKD 291531Z AUTO 18013KT 150V210 9999 BKN006 OVC008 09/08 Q1004 YLO TEMPO 4500 DZ SCT005 OVC006
16:27
I
9 °C 10 km+ 700 ft 180° 180° 13 kt METAR EHKD 291527Z AUTO 18013KT 150V210 9999 FEW006 BKN007 09/08 Q1004 GRN TEMPO 4500 DZ SCT005 OVC006
15:55
I
9 °C 10 km+ 500 ft 180° 180° 15 kt METAR EHKD 291455Z AUTO 18015KT 9999 BKN005 OVC006 09/08 Q1004 YLO TEMPO 4500 DZ SCT005 OVC006
15:40
I
9 °C 10 km+ 700 ft 170° 170° 16 kt METAR EHKD 291440Z AUTO 17016KT 140V200 9999 SCT006 BKN007 09/08 Q1004 YLO TEMPO 4500 DZ SCT005 OVC006
15:36
I
10 °C 10 km+ 700 ft 170° 170° 16 kt METAR EHKD 291436Z AUTO 17016KT 9999 FEW006 BKN007 OVC008 10/08 Q1004 GRN TEMPO 4500 DZ SCT005 OVC006
15:28
I
9 °C 10 km+ 700 ft 170° 170° 14 kt METAR EHKD 291428Z AUTO 17014KT 9999 FEW006 BKN007 BKN008 09/08 Q1004 GRN TEMPO 4500 DZ SCT005 OVC006
15:25
I
10 °C 10 km+ 700 ft 180° 180° 14 kt METAR EHKD 291425Z AUTO 18014KT 9999 -RA SCT006 BKN007 10/08 Q1004 YLO TEMPO 4500 DZ SCT005 OVC006
15:17
I
9 °C 10 km+ 700 ft 180° 180° 14 kt METAR EHKD 291417Z AUTO 18014KT 9999 -RA FEW006 BKN007 09/08 Q1005 GRN TEMPO 4500 DZ SCT005 OVC006
15:12
I
9 °C 10 km+ 700 ft 180° 180° 15 kt METAR EHKD 291412Z AUTO 18015KT 9999 SCT006 BKN007 OVC008 09/08 Q1005 YLO TEMPO 4500 DZ SCT005 OVC006
15:06
I
10 °C 10 km+ 700 ft 180° 180° 15 kt METAR EHKD 291406Z AUTO 18015KT 150V210 9999 FEW006 BKN007 BKN008 10/08 Q1005 GRN TEMPO 4500 DZ SCT005 OVC006
14:59
I
9 °C 10 km+ 600 ft 180° 180° 15 kt METAR EHKD 291359Z AUTO 18015KT 150V210 9999 BKN006 BKN007 09/08 Q1005 YLO TEMPO 4500 DZ SCT005 OVC006
14:55
I
10 °C 10 km+ 700 ft 180° 180° 16 kt METAR EHKD 291355Z AUTO 18016KT 9999 SCT006 BKN007 BKN008 10/08 Q1005 YLO TEMPO 4500 DZ SCT005 OVC006
14:40
I
10 °C 10 km+ 700 ft 180° 180° 14 kt METAR EHKD 291340Z AUTO 18014KT 9999 FEW006 BKN007 OVC008 10/08 Q1005 GRN TEMPO BKN004 OVC005
14:36
I
10 °C 10 km+ 800 ft 180° 180° 14 kt METAR EHKD 291336Z AUTO 18014KT 9999 SCT006 BKN008 BKN009 10/08 Q1005 YLO TEMPO BKN004 OVC005
14:25
I
10 °C 10 km+ 800 ft 180° 180° 14 kt METAR EHKD 291325Z AUTO 18014KT 9999 -RA FEW007 BKN008 BKN009 FEW015CB 10/08 Q1005 GRN TEMPO BKN004 OVC005
13:55
M
10 °C 10 km+ 1.000 ft 180° 180° 13 kt METAR EHKD 291255Z AUTO 18013KT 9999 FEW007 SCT009 OVC010 10/09 Q1006 GRN TEMPO BKN004 OVC005
13:25
I
10 °C 10 km+ 900 ft 190° 190° 14 kt METAR EHKD 291225Z AUTO 19014KT 9999 FEW007 BKN009 OVC010 10/09 Q1006 GRN TEMPO BKN004 OVC005
12:55
I
10 °C 10 km+ 900 ft 200° 200° 17 kt METAR EHKD 291155Z AUTO 20017KT 160V230 9999 SCT008 BKN009 OVC010 10/09 Q1006 GRN NOSIG
12:35
I
10 °C 10 km+ 700 ft 200° 200° 20 kt METAR EHKD 291135Z AUTO 20020KT 9999 BKN007 OVC008 10/09 Q1006 GRN NOSIG
12:25
I
10 °C 10 km+ 600 ft 200° 200° 19 kt METAR EHKD 291125Z AUTO 20019KT 170V230 9999 BKN006 BKN007 OVC009 10/09 Q1006 YLO NOSIG
12:16
I
10 °C 10 km+ 800 ft 200° 200° 20 kt METAR EHKD 291116Z AUTO 20020KT 170V230 9999 SCT007 BKN008 OVC009 10/09 Q1006 GRN NOSIG
11:55
I
10 °C 10 km+ 600 ft 200° 200° 19 kt METAR EHKD 291055Z AUTO 20019KT 170V230 9999 BKN006 10/08 Q1007 YLO NOSIG
11:43
I
10 °C 10 km+ 600 ft 200° 200° 17 kt METAR EHKD 291043Z AUTO 20017KT 170V230 9999 BKN006 OVC007 10/09 Q1007 YLO NOSIG
11:25
I
10 °C 10 km+ 600 ft 200° 200° 18 kt METAR EHKD 291025Z AUTO 20018KT 9999 FEW005 BKN006 10/09 Q1007 YLO TEMPO 4000 RADZ BKN005 OVC007
11:16
I
10 °C 10 km+ 700 ft 200° 200° 18 kt METAR EHKD 291016Z AUTO 20018KT 9999 SCT005 BKN007 OVC008 10/08 Q1007 YLO TEMPO 4000 RADZ BKN005 OVC007
11:08
I
9 °C 10 km+ 700 ft 200° 200° 18 kt METAR EHKD 291008Z AUTO 20018KT 9999 FEW006 BKN007 OVC008 09/08 Q1007 GRN TEMPO 4000 RADZ BKN005 OVC007
10:55
I
9 °C 10 km+ 600 ft 200° 200° 19 kt METAR EHKD 290955Z AUTO 20019KT 9999 BKN006 BKN007 09/08 Q1007 YLO TEMPO 2500 RADZ BKN005 OVC007
10:36
I
9 °C 10 km+ 600 ft 200° 200° 19 kt METAR EHKD 290936Z AUTO 20019KT 9999 OVC006 09/08 Q1007 YLO TEMPO 2500 RADZ BKN005 OVC007
10:25
I
9 °C 5 km 500 ft 200° 200° 20 kt METAR EHKD 290925Z AUTO 20020KT 170V240 5000 BR OVC005 09/08 Q1007 YLO TEMPO 2500 RADZ BKN005 OVC007
10:08
I
9 °C 3,8 km 500 ft 200° 200° 19 kt METAR EHKD 290908Z AUTO 20019KT 3800 BR BKN005 OVC006 09/08 Q1007 YLO TEMPO 2500 RADZ BKN005 OVC007
09:55
I
9 °C 5 km 600 ft 200° 200° 17 kt METAR EHKD 290855Z AUTO 20017KT 5000 BR SCT005 BKN006 09/08 Q1007 YLO TEMPO 2500 RADZ BKN005 OVC007
09:25
I
9 °C 2,5 km 700 ft 200° 200° 20 kt METAR EHKD 290825Z AUTO 20020KT 2500 R21/P3000D -RA SCT006 BKN007 OVC008 09/08 Q1007 YLO TEMPO 4000 RADZ BKN005 OVC007
09:12
I
9 °C 6 km 600 ft 200° 200° 20 kt METAR EHKD 290812Z AUTO 20020KT 6000 -RA BKN006 BKN007 09/08 Q1007 YLO TEMPO 4000 RADZ BKN005 OVC007
09:08
I
9 °C 4,3 km 700 ft 200° 200° 20 kt METAR EHKD 290808Z AUTO 20020KT 4300 -RA SCT006 BKN007 09/08 Q1007 YLO TEMPO 4000 RADZ BKN005 OVC007
09:02
I
9 °C 5 km 700 ft 190° 190° 20 kt METAR EHKD 290802Z AUTO 19020KT 160V220 5000 -RA FEW006 BKN007 BKN010 09/08 Q1007 GRN TEMPO 4000 RADZ BKN005 OVC007
08:57
I
9 °C 4 km 600 ft 200° 200° 19 kt METAR EHKD 290757Z AUTO 20019KT 170V230 4000 BR BKN006 BKN010 09/08 Q1007 YLO TEMPO 4000 RADZ BKN005 OVC007
08:35
I
9 °C 4 km 600 ft 200° 200° 21 kt METAR EHKD 290735Z AUTO 20021KT 4000 BR OVC006 09/08 Q1007 YLO TEMPO 4000 RADZ BKN005 OVC007
08:31
I
9 °C 5 km 600 ft 200° 200° 19 kt METAR EHKD 290731Z AUTO 20019KT 170V230 5000 BR BKN006 OVC008 09/08 Q1008 YLO TEMPO 4000 RADZ BKN005 OVC007
08:25
I
9 °C 9 km 600 ft 200° 200° 18 kt METAR EHKD 290725Z AUTO 20018KT 9000 BR BKN006 OVC007 09/08 Q1008 YLO TEMPO 4000 RADZ BKN005 OVC007
07:55
I
9 °C 8 km 600 ft 200° 200° 18 kt METAR EHKD 290655Z AUTO 20018KT 160V220 8000 BR BKN006 BKN007 09/08 Q1007 YLO TEMPO 4000 RADZ BKN005 OVC007
07:25
I
9 °C 7 km 500 ft 190° 190° 18 kt METAR EHKD 290625Z AUTO 19018KT 7000 BR BKN005 09/08 Q1007 YLO TEMPO 4000 RADZ BKN005 OVC007
07:04
I
9 °C 7 km 500 ft 190° 190° 19 kt METAR EHKD 290604Z AUTO 19019KT 7000 BR BKN005 09/08 Q1008 YLO TEMPO 4000 RADZ BKN005 OVC007
06:55
I
9 °C 9 km 600 ft 190° 190° 20 kt METAR EHKD 290555Z AUTO 19020KT 9000 BR BKN006 09/08 Q1008 YLO TEMPO 4000 RADZ BKN005 OVC007
06:38
I
9 °C 7 km 500 ft 190° 190° 18 kt METAR EHKD 290538Z AUTO 19018KT 7000 BR BKN005 09/08 Q1008 YLO TEMPO 2500 DZ BKN003 OVC005
06:23
I
9 °C 7 km 600 ft 190° 190° 17 kt METAR EHKD 290523Z AUTO 19017KT 7000 BR SCT005 BKN006 09/08 Q1008 YLO TEMPO 2500 DZ BKN003 OVC005
06:25
I
9 °C 6 km 600 ft 190° 190° 17 kt METAR EHKD 290525Z AUTO 19017KT 6000 BR SCT005 BKN006 09/08 Q1008 REDZ YLO
06:06
I
9 °C 5 km 500 ft 200° 200° 19 kt METAR EHKD 290506Z AUTO 20019KT 5000 BR BKN005 BKN006 09/08 Q1008 YLO
05:57
I
9 °C 4,3 km 500 ft 190° 190° 19 kt METAR EHKD 290457Z AUTO 19019KT 160V220 4300 -SHRA +DZ BKN005 09/08 Q1008 YLO
05:25
I
9 °C 7 km 500 ft 190° 190° 18 kt METAR EHKD 290425Z AUTO 19018KT 7000 BR OVC005 09/08 Q1008 YLO
05:07
I
9 °C 7 km 600 ft 190° 190° 18 kt METAR EHKD 290407Z AUTO 19018KT 7000 BR BKN006 09/07 Q1008 YLO
04:55
I
9 °C 8 km 600 ft 190° 190° 21 kt METAR EHKD 290355Z AUTO 19021KT 8000 BR BKN006 BKN008 09/08 Q1009 YLO
04:43
I
9 °C 8 km 700 ft 190° 190° 21 kt METAR EHKD 290343Z AUTO 19021KT 8000 -RA BKN007 OVC008 09/08 Q1009 GRN
04:25
I
9 °C 6 km 800 ft 190° 190° 16 kt METAR EHKD 290325Z AUTO 19016KT 6000 -RADZ SCT007 BKN008 09/07 Q1009 GRN
03:55
I
9 °C 6 km 800 ft 190° 190° 18 kt METAR EHKD 290255Z AUTO 19018KT 6000 -RA SCT006 BKN008 BKN009 FEW015CB 09/08 Q1009 RERA REDZ YLO
03:58
I
9 °C 6 km 800 ft 190° 190° 20 - 30 kt METAR EHKD 290258Z AUTO 19020G30KT 6000 -RA SCT007 BKN008 FEW015CB 09/08 Q1009 GRN
03:32
I
9 °C 5 km 800 ft 190° 190° 19 kt METAR EHKD 290232Z AUTO 19019KT 5000 -RADZ FEW006 SCT007 BKN008 FEW015CB 09/08 Q1010 GRN
03:27
I
9 °C 4,4 km 800 ft 200° 200° 19 kt METAR EHKD 290227Z AUTO 20019KT 160V220 4400 -RA SCT006 BKN008 BKN009 FEW015CB 09/08 Q1010 YLO
03:25
I
9 °C 5 km 800 ft 190° 190° 19 kt METAR EHKD 290225Z AUTO 19019KT 5000 BR FEW005 SCT007 BKN008 09/08 Q1010 GRN
03:12
I
9 °C 6 km 800 ft 190° 190° 20 kt METAR EHKD 290212Z AUTO 19020KT 6000 BR SCT007 BKN008 BKN009 09/07 Q1010 GRN
02:55
I
8 °C 5 km 900 ft 190° 190° 19 kt METAR EHKD 290155Z AUTO 19019KT 160V220 5000 -RA FEW006 SCT008 BKN009 08/08 Q1010 GRN
02:37
I
8 °C 4,2 km 900 ft 190° 190° 21 kt METAR EHKD 290137Z AUTO 19021KT 4200 -RA FEW005 SCT007 BKN009 08/07 Q1011 GRN
02:25
I
8 °C 4,2 km 900 ft 190° 190° 20 kt METAR EHKD 290125Z AUTO 19020KT 4200 BR FEW005 SCT007 BKN009 08/07 Q1011 GRN
02:07
I
8 °C 3,3 km 900 ft 190° 190° 20 - 30 kt METAR EHKD 290107Z AUTO 19020G30KT 160V220 3300 -RA FEW007 SCT008 BKN009 08/07 Q1011 YLO
01:55
I
8 °C 3,6 km 800 ft 190° 190° 20 kt METAR EHKD 290055Z AUTO 19020KT 160V220 3600 -RA FEW006 BKN008 BKN010 08/07 Q1011 YLO
01:37
I
8 °C 3,6 km 1.000 ft 190° 190° 16 kt METAR EHKD 290037Z AUTO 19016KT 160V220 3600 -UP FEW006 BKN010 OVC012 08/07 Q1011 YLO
01:25
M
8 °C 5 km 1.200 ft 190° 190° 19 kt METAR EHKD 290025Z AUTO 19019KT 5000 BR FEW010 OVC012 08/07 Q1011 GRN
00:55
M
8 °C 10 km+ 1.400 ft 180° 180° 15 kt METAR EHKD 282355Z AUTO 18015KT 9999 SCT012 OVC014 08/06 Q1012 GRN
00:42
M
8 °C 10 km+ 1.500 ft 180° 180° 15 kt METAR EHKD 282342Z AUTO 18015KT 9999 FEW012 OVC015 08/06 Q1012 WHT
00:25
M
8 °C 10 km+ 1.500 ft 180° 180° 15 kt METAR EHKD 282325Z AUTO 18015KT 9999 OVC015 08/06 Q1012 WHT
00:13
M
8 °C 10 km+ 1.500 ft 180° 180° 15 kt METAR EHKD 282313Z AUTO 18015KT 9999 OVC015 08/06 Q1013 WHT
00:04
M
9 °C 10 km+ 1.700 ft 180° 180° 15 kt METAR EHKD 282304Z AUTO 18015KT 9999 SCT014 OVC017 09/06 Q1013 GRN

28 de fevereiro de 2024

Hora Código Clima Temp. Visibilidade Tecto Vento METAR/SPECI
23:55
M
9 °C 10 km+ 1.600 ft 180° 180° 15 kt METAR EHKD 282255Z AUTO 18015KT 9999 FEW013 OVC016 09/06 Q1013 WHT
23:25
M
9 °C 10 km+ 1.600 ft 190° 190° 17 kt METAR EHKD 282225Z AUTO 19017KT 9999 FEW013 OVC016 09/06 Q1013 WHT
22:55
M
9 °C 10 km+ 1.900 ft 190° 190° 16 kt METAR EHKD 282155Z AUTO 19016KT 9999 SCT016 OVC019 09/06 Q1014 WHT
22:25
M
9 °C 10 km+ 1.700 ft 190° 190° 16 kt METAR EHKD 282125Z AUTO 19016KT 9999 BKN017 OVC021 09/06 Q1014 WHT
21:55
M
9 °C 10 km+ 1.500 ft 200° 200° 17 kt METAR EHKD 282055Z AUTO 20017KT 170V230 9999 FEW012 BKN015 BKN018 09/07 Q1014 WHT
21:42
M
9 °C 10 km+ 2.800 ft 190° 190° 17 kt METAR EHKD 282042Z AUTO 19017KT 9999 FEW013 SCT016 BKN028 09/07 Q1015 WHT
21:31
M
9 °C 10 km+ 2.400 ft 190° 190° 17 kt METAR EHKD 282031Z AUTO 19017KT 9999 FEW014 BKN024 OVC028 09/07 Q1015 WHT
21:27
M
9 °C 10 km+ 2.700 ft 190° 190° 16 kt METAR EHKD 282027Z AUTO 19016KT 9999 FEW013 BKN027 OVC030 09/07 Q1015 BLU
21:25
M
9 °C 10 km+ 2.900 ft 200° 200° 16 kt METAR EHKD 282025Z AUTO 20016KT 170V230 9999 FEW012 SCT015 OVC029 09/07 Q1015 WHT
21:17
M
9 °C 10 km+ 2.800 ft 200° 200° 16 kt METAR EHKD 282017Z AUTO 20016KT 170V230 9999 FEW010 SCT013 OVC028 09/07 Q1015 GRN
21:05
M
8 °C 10 km+ 1.400 ft 190° 190° 16 kt METAR EHKD 282005Z AUTO 19016KT 9999 SCT011 BKN014 BKN021 08/07 Q1015 GRN
21:01
M
8 °C 9 km 1.400 ft 190° 190° 16 kt METAR EHKD 282001Z AUTO 19016KT 9000 BR SCT011 BKN014 BKN018 08/07 Q1015 GRN TEMPO 4500 BR RADZ SCT005 BKN009
20:57
M
8 °C 9 km 3.000 ft 200° 200° 16 kt METAR EHKD 281957Z AUTO 20016KT 9000 BR FEW009 SCT011 BKN030 08/07 Q1015 GRN TEMPO 4500 BR RADZ SCT005 BKN009
20:25
I
9 °C 6 km 800 ft 200° 200° 17 kt METAR EHKD 281925Z AUTO 20017KT 6000 BR SCT007 BKN008 09/07 Q1015 GRN TEMPO 4500 BR RADZ SCT005 BKN009
20:13
I
9 °C 6 km 900 ft 200° 200° 16 kt METAR EHKD 281913Z AUTO 20016KT 170V230 6000 BR SCT008 BKN009 OVC010 09/07 Q1015 GRN TEMPO 4500 BR RADZ SCT005 BKN009
19:55
I
9 °C 4,5 km 900 ft 200° 200° 17 kt METAR EHKD 281855Z AUTO 20017KT 170V230 4500 BR FEW006 SCT007 BKN009 09/07 Q1016 GRN TEMPO 4500 BR RADZ SCT005 BKN009
19:42
I
9 °C 4,9 km 800 ft 200° 200° 16 kt METAR EHKD 281842Z AUTO 20016KT 170V230 4900 BR FEW007 BKN008 BKN010 09/07 Q1016 GRN TEMPO 4500 BR RADZ SCT005 BKN009
19:38
I
9 °C 3,6 km 800 ft 200° 200° 15 kt METAR EHKD 281838Z AUTO 20015KT 170V230 3600 R21/P3000N BR FEW007 BKN008 BKN010 09/07 Q1016 YLO TEMPO 4500 BR RADZ SCT005 BKN009
19:25
I
9 °C 6 km 800 ft 200° 200° 14 kt METAR EHKD 281825Z AUTO 20014KT 170V230 6000 BR FEW007 BKN008 OVC010 09/08 Q1016 GRN TEMPO 4500 BR RADZ SCT005 BKN009
19:19
I
9 °C 6 km 800 ft 200° 200° 14 kt METAR EHKD 281819Z AUTO 20014KT 170V230 6000 BR FEW007 BKN008 OVC010 09/08 Q1016 GRN TEMPO 4500 BR RADZ SCT005 BKN009
19:08
I
8 °C 7 km 800 ft 200° 200° 13 kt METAR EHKD 281808Z AUTO 20013KT 7000 BR FEW006 SCT007 BKN008 08/07 Q1016 GRN TEMPO 4500 BR RADZ SCT005 BKN009
19:00
I
8 °C 5 km 700 ft 190° 190° 13 kt METAR EHKD 281800Z AUTO 19013KT 160V220 5000 BR FEW004 SCT005 BKN007 08/07 Q1016 YLO TEMPO 4500 BR RADZ SCT005 BKN009
18:55
I
8 °C 3,2 km 500 ft 180° 180° 12 kt METAR EHKD 281755Z AUTO 18012KT 3200 R21/P3000N BR SCT004 BKN005 08/07 Q1016 YLO TEMPO 4500 BR RADZ SCT006 BKN009
18:44
I
8 °C 4 km 700 ft 190° 190° 13 kt METAR EHKD 281744Z AUTO 19013KT 4000 BR FEW004 SCT006 BKN007 08/07 Q1016 YLO TEMPO 4500 BR RADZ SCT006 BKN009
18:40
I
8 °C 4,2 km 1.000 ft 190° 190° 14 kt METAR EHKD 281740Z AUTO 19014KT 4200 BR FEW004 SCT006 BKN010 08/07 Q1016 YLO TEMPO 4500 BR RADZ SCT006 BKN009
18:32
I
8 °C 4,1 km 1.000 ft 200° 200° 15 kt METAR EHKD 281732Z AUTO 20015KT 4100 BR FEW005 BKN010 08/07 Q1016 GRN TEMPO 4500 BR RADZ SCT006 BKN009
18:25
I
8 °C 3,6 km 1.000 ft 200° 200° 15 kt METAR EHKD 281725Z AUTO 20015KT 3600 R21/P3000N BR FEW006 SCT008 BKN010 08/07 Q1016 YLO TEMPO 4500 BR RADZ SCT006 BKN009
18:15
M
9 °C 7 km 1.100 ft 190° 190° 14 kt METAR EHKD 281715Z AUTO 19014KT 7000 BR FEW008 SCT009 BKN011 09/07 Q1017 GRN TEMPO 4500 BR RADZ SCT006 BKN009
17:55
M
9 °C 10 km+ 1.300 ft 200° 200° 14 kt METAR EHKD 281655Z AUTO 20014KT 9999 SCT011 BKN013 BKN015 09/07 Q1017 GRN TEMPO SCT006 BKN009
17:25
M
9 °C 10 km+ 1.100 ft 200° 200° 15 kt METAR EHKD 281625Z AUTO 20015KT 9999 OVC011 09/07 Q1017 GRN TEMPO SCT006 BKN009
16:55
M
9 °C 10 km+ 1.000 ft 200° 200° 16 kt METAR EHKD 281555Z AUTO 20016KT 160V230 9999 FEW009 BKN010 OVC012 09/06 Q1017 GRN TEMPO SCT006 BKN009
16:25
M
8 °C 10 km+ 1.000 ft 210° 210° 16 kt METAR EHKD 281525Z AUTO 21016KT 180V240 9999 FEW008 SCT009 BKN010 08/06 Q1018 GRN TEMPO SCT006 BKN009
16:09
I
9 °C 10 km+ 900 ft 210° 210° 16 kt METAR EHKD 281509Z AUTO 21016KT 180V240 9999 FEW008 BKN009 OVC010 09/07 Q1018 GRN TEMPO SCT008 BKN010
16:04
I
9 °C 10 km+ 800 ft 210° 210° 15 kt METAR EHKD 281504Z AUTO 21015KT 180V240 9999 FEW006 BKN008 BKN009 09/07 Q1018 GRN TEMPO SCT008 BKN010
15:55
I
8 °C 9 km 600 ft 210° 210° 15 kt METAR EHKD 281455Z AUTO 21015KT 9000 BR BKN006 OVC008 08/07 Q1018 YLO TEMPO SCT008 BKN010
15:25
I
8 °C 10 km+ 800 ft 220° 220° 13 kt METAR EHKD 281425Z AUTO 22013KT 180V250 9999 SCT007 BKN008 BKN009 08/07 Q1018 GRN TEMPO SCT008 BKN010
14:55
M
9 °C 10 km+ 1.100 ft 210° 210° 14 kt METAR EHKD 281355Z AUTO 21014KT 180V240 9999 FEW008 SCT009 BKN011 09/07 Q1018 GRN TEMPO SCT008 BKN010
14:43
M
9 °C 10 km+ 1.400 ft 220° 220° 14 kt METAR EHKD 281343Z AUTO 22014KT 9999 FEW008 BKN014 OVC016 09/06 Q1018 GRN TEMPO SCT008 BKN012
14:39
M
9 °C 10 km+ 1.500 ft 220° 220° 13 kt METAR EHKD 281339Z AUTO 22013KT 190V250 9999 FEW008 OVC015 09/07 Q1018 WHT TEMPO SCT008 BKN012
14:25
M
8 °C 10 km+ 1.200 ft 220° 220° 12 kt METAR EHKD 281325Z AUTO 22012KT 190V250 9999 FEW007 BKN012 OVC014 08/07 Q1019 GRN TEMPO SCT008 BKN012
13:55
M
9 °C 10 km+ 1.400 ft 220° 220° 14 kt METAR EHKD 281255Z AUTO 22014KT 180V240 9999 FEW011 BKN014 OVC016 09/06 Q1019 GRN TEMPO SCT008 BKN012
13:30
M
9 °C 10 km+ 1.100 ft 220° 220° 14 kt METAR EHKD 281230Z AUTO 22014KT 190V250 9999 FEW006 SCT008 BKN011 09/07 Q1019 GRN TEMPO SCT008 BKN012
13:26
M
9 °C 10 km+ 1.100 ft 220° 220° 13 kt METAR EHKD 281226Z AUTO 22013KT 190V250 9999 SCT006 SCT008 BKN011 09/07 Q1019 YLO TEMPO SCT008 BKN012
13:25
M
9 °C 10 km+ 1.200 ft 220° 220° 12 kt METAR EHKD 281225Z AUTO 22012KT 190V250 9999 FEW006 SCT008 BKN012 09/07 Q1019 GRN TEMPO SCT008 BKN012
13:12
I
9 °C 10 km+ 900 ft 220° 220° 11 kt METAR EHKD 281212Z AUTO 22011KT 180V250 9999 FEW006 SCT007 BKN009 09/07 Q1019 GRN NOSIG
13:06
I
9 °C 10 km+ 800 ft 220° 220° 11 kt METAR EHKD 281206Z AUTO 22011KT 190V250 9999 SCT006 BKN008 OVC020 09/07 Q1019 YLO NOSIG
13:01
I
9 °C 10 km+ 800 ft 220° 220° 12 kt METAR EHKD 281201Z AUTO 22012KT 9999 FEW006 BKN008 OVC020 09/07 Q1019 GRN NOSIG
12:57
M
9 °C 10 km+ 2.000 ft 220° 220° 12 kt METAR EHKD 281157Z AUTO 22012KT 9999 FEW006 SCT008 OVC020 09/07 Q1019 GRN NOSIG
12:43
V
9 °C 10 km+ 15.000 ft 220° 220° 12 kt METAR EHKD 281143Z AUTO 22012KT 190V250 9999 FEW006 SCT018 OVC150 09/07 Q1020 WHT NOSIG
12:29
M
9 °C 10 km+ 1.700 ft 220° 220° 11 kt METAR EHKD 281129Z AUTO 22011KT 190V250 9999 FEW008 SCT009 OVC017 09/07 Q1019 GRN NOSIG
12:25
M
9 °C 10 km+ 1.800 ft 220° 220° 11 kt METAR EHKD 281125Z AUTO 22011KT 190V250 9999 FEW008 SCT010 OVC018 09/07 Q1019 GRN NOSIG
12:11
M
9 °C 10 km+ 1.600 ft 220° 220° 11 kt METAR EHKD 281111Z AUTO 22011KT 180V250 9999 FEW009 BKN016 OVC150 09/07 Q1019 WHT NOSIG
12:07
V
9 °C 10 km+ 15.000 ft 220° 220° 11 kt METAR EHKD 281107Z AUTO 22011KT 180V240 9999 FEW009 SCT019 OVC150 09/07 Q1019 WHT NOSIG
11:55
M
8 °C 10 km+ 1.500 ft 220° 220° 10 kt METAR EHKD 281055Z AUTO 22010KT 160V250 9999 SCT010 BKN015 BKN160 08/06 Q1019 GRN NOSIG
11:25
M
8 °C 10 km+ 1.200 ft 220° 220° 11 kt METAR EHKD 281025Z AUTO 22011KT 9999 SCT010 BKN012 BKN015 08/06 Q1019 GRN NOSIG
10:55
M
9 °C 10 km+ 1.100 ft 200° 200° 10 kt METAR EHKD 280955Z AUTO 20010KT 170V230 9999 BKN011 OVC013 09/07 Q1020 GRN NOSIG
10:41
I
8 °C 10 km+ 900 ft 210° 210° 8 kt METAR EHKD 280941Z AUTO 21008KT 190V250 9999 FEW008 BKN009 BKN011 08/06 Q1020 GRN NOSIG
10:37
V
9 °C 10 km+ 24.000 ft 220° 220° 8 kt METAR EHKD 280937Z AUTO 22008KT 190V250 9999 FEW009 SCT011 BKN240 09/07 Q1019 GRN NOSIG
10:25
V
8 °C 10 km+ 17.000 ft 220° 220° 8 kt METAR EHKD 280925Z AUTO 22008KT 190V250 9999 FEW012 OVC170 08/06 Q1019 BLU NOSIG
10:08
M
8 °C 10 km+ 2.500 ft 210° 210° 8 kt METAR EHKD 280908Z AUTO 21008KT 180V240 9999 FEW021 BKN025 BKN170 08/06 Q1019 BLU TEMPO SCT008 BKN010
09:55
M
8 °C 10 km+ 1.800 ft 210° 210° 8 kt METAR EHKD 280855Z AUTO 21008KT 9999 SCT015 OVC018 08/06 Q1019 WHT TEMPO SCT008 BKN010
09:25
M
8 °C 10 km+ 1.500 ft 240° 240° 8 kt METAR EHKD 280825Z AUTO 24008KT 9999 BKN015 OVC018 08/05 Q1019 WHT TEMPO SCT008 BKN010
09:16
M
8 °C 10 km+ 1.400 ft 230° 230° 7 kt METAR EHKD 280816Z AUTO 23007KT 9999 OVC014 08/05 Q1019 GRN TEMPO SCT008 BKN010
09:12
M
8 °C 10 km+ 1.500 ft 230° 230° 7 kt METAR EHKD 280812Z AUTO 23007KT 200V260 9999 SCT013 OVC015 08/06 Q1019 GRN TEMPO SCT008 BKN010
09:03
M
8 °C 10 km+ 1.600 ft 220° 220° 7 kt METAR EHKD 280803Z AUTO 22007KT 9999 SCT013 OVC016 08/06 Q1019 GRN TEMPO SCT005 BKN010
08:55
M
7 °C 8 km 1.500 ft 220° 220° 5 kt METAR EHKD 280755Z AUTO 22005KT 8000 BR FEW012 OVC015 07/06 Q1019 WHT TEMPO SCT005 BKN010
08:41
M
7 °C 9 km 1.400 ft 220° 220° 5 kt METAR EHKD 280741Z AUTO 22005KT 9000 BR BKN014 OVC016 07/06 Q1019 GRN TEMPO SCT005 BKN010
08:25
M
7 °C 8 km 1.200 ft 230° 230° 5 kt METAR EHKD 280725Z AUTO 23005KT 8000 BR BKN012 OVC014 07/06 Q1019 GRN TEMPO SCT005 BKN010
08:17
M
7 °C 8 km 1.400 ft 240° 240° 5 kt METAR EHKD 280717Z AUTO 24005KT 8000 BR SCT012 BKN014 BKN033 07/06 Q1019 GRN TEMPO SCT005 BKN010
08:13
V
7 °C 9 km 3.200 ft 230° 230° 5 kt METAR EHKD 280713Z AUTO 23005KT 9000 BR FEW012 SCT015 BKN032 07/06 Q1019 WHT TEMPO SCT005 BKN010
07:55
V
7 °C 10 km+ 3.100 ft 240° 240° 6 kt METAR EHKD 280655Z AUTO 24006KT 9999 FEW027 OVC031 07/06 Q1018 BLU TEMPO SCT005 BKN010
07:28
M
7 °C 10 km+ 2.900 ft 250° 250° 7 kt METAR EHKD 280628Z AUTO 25007KT 9999 FEW019 SCT025 OVC029 07/06 Q1018 BLU TEMPO SCT005 BKN010
07:25
M
7 °C 10 km+ 2.600 ft 250° 250° 7 kt METAR EHKD 280625Z AUTO 25007KT 9999 FEW009 SCT019 BKN026 07/06 Q1018 WHT TEMPO SCT005 BKN010
07:17
M
7 °C 10 km+ 1.500 ft 240° 240° 7 kt METAR EHKD 280617Z AUTO 24007KT 210V270 9999 FEW009 BKN015 OVC019 07/06 Q1018 WHT TEMPO SCT005 BKN010
07:03
M
7 °C 10 km+ 1.300 ft 240° 240° 6 kt METAR EHKD 280603Z AUTO 24006KT 210V270 9999 BKN013 BKN015 OVC018 07/06 Q1018 GRN TEMPO SCT005 BKN010
06:59
M
7 °C 10 km+ 1.600 ft 240° 240° 6 kt METAR EHKD 280559Z AUTO 24006KT 9999 SCT013 BKN016 OVC020 07/06 Q1018 GRN TEMPO SCT005 BKN010
06:39
M
7 °C 9 km 1.300 ft 240° 240° 6 kt METAR EHKD 280539Z AUTO 24006KT 9000 BR BKN013 OVC018 07/06 Q1018 GRN TEMPO 4000 BR SCT005
06:35
M
7 °C 9 km 1.900 ft 240° 240° 6 kt METAR EHKD 280535Z AUTO 24006KT 9000 BR SCT013 OVC019 07/06 Q1018 GRN TEMPO 4000 BR SCT005
06:25
M
7 °C 9 km 1.700 ft 240° 240° 5 kt METAR EHKD 280525Z AUTO 24005KT 9000 BR FEW013 BKN017 OVC021 07/06 Q1018 WHT
05:55
M
7 °C 10 km+ 1.800 ft 240° 240° 6 kt METAR EHKD 280455Z AUTO 24006KT 9999 SCT015 BKN018 OVC021 07/06 Q1018 WHT
05:44
M
7 °C 10 km+ 1.700 ft 240° 240° 6 kt METAR EHKD 280444Z AUTO 24006KT 9999 FEW013 BKN017 OVC021 07/06 Q1018 WHT
04:55
L
7 °C 5 km 400 ft 230° 230° 8 kt METAR EHKD 280355Z AUTO 23008KT 5000 DZ SCT002 BKN004 OVC008 07/06 Q1018 AMB
05:25
M
7 °C 10 km+ 1.200 ft 240° 240° 8 kt METAR EHKD 280425Z AUTO 24008KT 9999 FEW008 BKN012 OVC014 07/06 Q1018 GRN
05:16
M
7 °C 9 km 1.000 ft 230° 230° 8 kt METAR EHKD 280416Z AUTO 23008KT 9000 BR FEW008 OVC010 07/06 Q1018 GRN
05:02
I
7 °C 8 km 800 ft 230° 230° 7 kt METAR EHKD 280402Z AUTO 23007KT 200V260 8000 BR FEW003 BKN008 OVC010 07/06 Q1018 GRN
04:57
I
7 °C 6 km 800 ft 230° 230° 7 kt METAR EHKD 280357Z AUTO 23007KT 6000 BR FEW002 SCT004 OVC008 07/06 Q1018 YLO
04:25
L
7 °C 3 km 400 ft 240° 240° 8 kt METAR EHKD 280325Z AUTO 24008KT 210V270 3000 BR SCT003 BKN004 OVC006 07/06 Q1018 YLO
04:06
I
7 °C 2,5 km 600 ft 240° 240° 9 kt METAR EHKD 280306Z AUTO 24009KT 2500 BR FEW004 BKN006 BKN007 07/06 Q1018 YLO
04:02
I
7 °C 2,6 km 700 ft 240° 240° 9 kt METAR EHKD 280302Z AUTO 24009KT 2600 BR FEW004 SCT006 BKN007 07/06 Q1018 YLO
03:58
I
7 °C 4,5 km 700 ft 240° 240° 9 kt METAR EHKD 280258Z AUTO 24009KT 4500 BR FEW005 BKN007 BKN008 07/06 Q1018 GRN
03:38
I
7 °C 9 km 600 ft 230° 230° 9 kt METAR EHKD 280238Z AUTO 23009KT 200V260 9000 BR BKN006 OVC007 07/06 Q1018 YLO
03:25
I
7 °C 7 km 800 ft 230° 230° 9 kt METAR EHKD 280225Z AUTO 23009KT 7000 BR FEW005 BKN008 BKN010 07/06 Q1018 GRN
03:15
I
7 °C 7 km 500 ft 230° 230° 10 kt METAR EHKD 280215Z AUTO 23010KT 200V260 7000 BR BKN005 BKN007 BKN008 07/06 Q1018 YLO
03:02
I
6 °C 8 km 600 ft 230° 230° 9 kt METAR EHKD 280202Z AUTO 23009KT 200V260 8000 -RA BKN006 BKN007 06/05 Q1018 YLO
02:55
I
6 °C 4,5 km 800 ft 230° 230° 9 kt METAR EHKD 280155Z AUTO 23009KT 4500 -UP FEW007 BKN008 OVC010 06/05 Q1018 GRN
02:37
M
6 °C 10 km+ 1.400 ft 240° 240° 9 kt METAR EHKD 280137Z AUTO 24009KT 9999 FEW003 SCT011 BKN014 06/05 Q1018 GRN
02:25
L
6 °C 6 km 400 ft 240° 240° 9 kt METAR EHKD 280125Z AUTO 24009KT 220V280 6000 BR SCT003 BKN004 BKN006 06/05 Q1018 YLO
02:16
M
6 °C 5 km 1.200 ft 240° 240° 10 kt METAR EHKD 280116Z AUTO 24010KT 220V280 5000 BR FEW003 SCT006 BKN012 06/05 Q1018 YLO
02:12
M
6 °C 5 km 1.200 ft 250° 250° 10 kt METAR EHKD 280112Z AUTO 25010KT 220V280 5000 BR FEW005 BKN012 06/05 Q1018 GRN
01:55
M
7 °C 10 km+ 1.500 ft 230° 230° 9 kt METAR EHKD 280055Z AUTO 23009KT 9999 OVC015 07/04 Q1018 WHT
01:27
M
6 °C 10 km+ 2.200 ft 220° 220° 10 kt METAR EHKD 280027Z AUTO 22010KT 190V260 9999 SCT016/// BKN022/// BKN028/// 06/03 Q1018 WHT
01:25
V
6 °C 10 km+ 4.000 ft 220° 220° 10 kt METAR EHKD 280025Z AUTO 22010KT 190V260 9999 SCT016 SCT028 OVC040 06/03 Q1018 WHT
01:01
V
6 °C 10 km+ 4.000 ft 210° 210° 9 kt METAR EHKD 280001Z AUTO 21009KT 180V240 9999 SCT017 BKN040 OVC044 06/03 Q1018 WHT
00:57
V
6 °C 10 km+ 4.000 ft 220° 220° 8 kt METAR EHKD 272357Z AUTO 22008KT 180V250 9999 FEW018 BKN040 OVC045 06/03 Q1018 BLU
00:36
M
5 °C 10 km+ 1.700 ft 200° 200° 7 kt METAR EHKD 272336Z AUTO 20007KT 9999 BKN017 BKN047 BKN054 05/03 Q1018 WHT
00:28
V
4 °C 10 km+ 4.700 ft 200° 200° 6 kt METAR EHKD 272328Z AUTO 20006KT 9999 SCT017 OVC047 04/02 Q1018 WHT
00:25
V
4 °C 10 km+ 4.800 ft 200° 200° 6 kt METAR EHKD 272325Z AUTO 20006KT 9999 SCT017 OVC048 04/02 Q1018 WHT
00:16
V
4 °C 10 km+ 5.000 ft 200° 200° 7 kt METAR EHKD 272316Z AUTO 20007KT 9999 FEW017 BKN050 BKN076 04/02 Q1018 BLU
00:12
V
4 °C 10 km+ 7.700 ft 190° 190° 7 kt METAR EHKD 272312Z AUTO 19007KT 9999 SCT017 BKN077 04/02 Q1018 WHT
00:04
V
3 °C 10 km+ - 190° 190° 7 kt METAR EHKD 272304Z AUTO 19007KT 9999 SCT017 SCT081 03/02 Q1018 WHT

27 de fevereiro de 2024

Hora Código Clima Temp. Visibilidade Tecto Vento METAR/SPECI
23:55
V
3 °C 10 km+ - 180° 180° 6 kt METAR EHKD 272255Z AUTO 18006KT 9999 FEW018 SCT063 03/01 Q1018 BLU
23:41
V
3 °C 10 km+ 10.000 ft 190° 190° 6 kt METAR EHKD 272241Z AUTO 19006KT 9999 SCT018 OVC100 03/02 Q1018 WHT
23:25
V
4 °C 10 km+ 10.000 ft 190° 190° 6 kt METAR EHKD 272225Z AUTO 19006KT 9999 OVC100 04/02 Q1018 BLU
22:55
V
4 °C 10 km+ 7.100 ft 190° 190° 6 kt METAR EHKD 272155Z AUTO 19006KT 9999 OVC071 04/02 Q1019 BLU
22:25
V
4 °C 10 km+ 8.300 ft 190° 190° 6 kt METAR EHKD 272125Z AUTO 19006KT 9999 BKN083 OVC090 04/02 Q1019 BLU
21:55
V
4 °C 10 km+ 8.600 ft 180° 180° 5 kt METAR EHKD 272055Z AUTO 18005KT 9999 FEW021 OVC086 04/02 Q1019 BLU
21:42
V
3 °C 10 km+ 8.900 ft 190° 190° 5 kt METAR EHKD 272042Z AUTO 19005KT 9999 SCT021 OVC089 03/02 Q1019 WHT
21:33
V
3 °C 10 km+ 9.600 ft 200° 200° 5 kt METAR EHKD 272033Z AUTO 20005KT 9999 SCT090 OVC096 03/01 Q1019 BLU
21:25
V
3 °C 10 km+ 10.000 ft 190° 190° 6 kt METAR EHKD 272025Z AUTO 19006KT 9999 SCT096 OVC100 03/01 Q1018 BLU NOSIG
20:55
V
3 °C 10 km+ 10.000 ft 190° 190° 5 kt METAR EHKD 271955Z AUTO 19005KT 9999 OVC100 03/01 Q1019 BLU NOSIG
20:25
V
2 °C 10 km+ 10.000 ft 180° 180° 5 kt METAR EHKD 271925Z AUTO 18005KT 9999 OVC100 02/M00 Q1018 BLU NOSIG
19:55
V
4 °C 10 km+ 12.000 ft 210° 210° 4 kt METAR EHKD 271855Z AUTO 21004KT 9999 BKN120 OVC180 04/01 Q1018 BLU NOSIG
19:25
V
3 °C 10 km+ 15.000 ft 190° 190° 4 kt METAR EHKD 271825Z AUTO 19004KT 9999 OVC150 03/01 Q1018 BLU NOSIG
18:55
V
4 °C 10 km+ 13.000 ft 190° 190° 3 kt METAR EHKD 271755Z AUTO 19003KT 9999 OVC130 04/01 Q1018 BLU NOSIG
18:25
V
5 °C 10 km+ 14.000 ft 220° 220° 3 kt METAR EHKD 271725Z AUTO 22003KT 9999 OVC140 05/01 Q1018 BLU NOSIG
17:55
V
5 °C 10 km+ 18.000 ft 250° 250° 4 kt METAR EHKD 271655Z AUTO 25004KT 9999 OVC180 05/01 Q1018 BLU NOSIG
17:25
V
6 °C 10 km+ 15.000 ft 280° 280° 6 kt METAR EHKD 271625Z AUTO 28006KT 240V320 9999 OVC150 06/01 Q1018 BLU NOSIG
16:55
V
6 °C 10 km+ 16.000 ft 270° 270° 7 kt METAR EHKD 271555Z AUTO 27007KT 250V310 9999 OVC160 06/01 Q1018 BLU NOSIG
16:25
V
6 °C 10 km+ 29.000 ft 280° 280° 7 kt METAR EHKD 271525Z AUTO 28007KT 240V310 9999 SCT180 OVC290 06/01 Q1018 BLU NOSIG
15:55
V
7 °C 10 km+ 18.000 ft 280° 280° 7 kt METAR EHKD 271455Z AUTO 28007KT 260V320 9999 OVC180 07/01 Q1018 BLU NOSIG
15:25
V
7 °C 10 km+ - 270° 270° 5 kt METAR EHKD 271425Z AUTO 27005KT 230V310 9999 FEW025 07/01 Q1018 BLU NOSIG
14:55
M
7 °C 10 km+ 2.500 ft 300° 300° 5 kt METAR EHKD 271355Z AUTO 30005KT 220V340 9999 OVC025 07/01 Q1018 BLU NOSIG
14:41
M
7 °C 10 km+ 2.600 ft 290° 290° 5 kt METAR EHKD 271341Z AUTO 29005KT 240V340 9999 BKN026 07/02 Q1018 BLU BECMG 27005KT
14:31
M
7 °C 10 km+ 2.500 ft 290° 290° 5 kt METAR EHKD 271331Z AUTO 29005KT 240V330 9999 OVC025 07/01 Q1018 BLU BECMG 27005KT
14:25
M
7 °C 10 km+ 2.400 ft 300° 300° 4 kt METAR EHKD 271325Z AUTO 30004KT 250V350 9999 OVC024 07/01 Q1019 WHT BECMG 27005KT
14:03
M
7 °C 10 km+ 2.500 ft 030° 030° 4 kt METAR EHKD 271303Z AUTO 03004KT 350V070 9999 OVC025 07/01 Q1019 BLU BECMG 27005KT
13:55
M
7 °C 10 km+ 2.400 ft 040° 040° 4 kt METAR EHKD 271255Z AUTO 04004KT 350V080 9999 BKN024 OVC027 07/01 Q1019 WHT BECMG 27005KT
13:25
M
7 °C 10 km+ 2.600 ft 100° 100° 4 kt METAR EHKD 271225Z AUTO 10004KT 060V160 9999 OVC026 07/01 Q1019 BLU BECMG 27005KT
12:55
M
7 °C 10 km+ 2.500 ft 040° 040° 3 kt METAR EHKD 271155Z AUTO 04003KT 350V080 9999 OVC025 07/01 Q1019 BLU BECMG 27005KT
12:25
V
7 °C 10 km+ 25.000 ft 070° 070° 5 kt METAR EHKD 271125Z AUTO 07005KT 040V110 9999 OVC250 07/01 Q1019 BLU BECMG 27005KT
11:55
V
7 °C 10 km+ - 080° 080° 4 kt METAR EHKD 271055Z AUTO 08004KT 020V130 9999 NCD 07/01 Q1019 BLU BECMG 27005KT
11:25
V
7 °C 10 km+ - 090° 090° 5 kt METAR EHKD 271025Z AUTO 09005KT 050V140 9999 FEW025 07/01 Q1019 BLU NOSIG
10:55
V
7 °C 10 km+ - 090° 090° 5 kt METAR EHKD 270955Z AUTO 09005KT 050V140 9999 FEW025 07/01 Q1019 BLU NOSIG
10:25
M
6 °C 10 km+ 2.300 ft 060° 060° 5 kt METAR EHKD 270925Z AUTO 06005KT 020V100 9999 OVC023 06/01 Q1019 WHT NOSIG
09:55
M
6 °C 10 km+ 2.400 ft 070° 070° 5 kt METAR EHKD 270855Z AUTO 07005KT 020V110 9999 OVC024 06/01 Q1019 WHT NOSIG
09:36
M
6 °C 10 km+ 2.400 ft 040° 040° 4 kt METAR EHKD 270836Z AUTO 04004KT 350V070 9999 OVC024 06/01 Q1019 WHT NOSIG
09:32
M
6 °C 10 km+ 2.500 ft 040° 040° 5 kt METAR EHKD 270832Z AUTO 04005KT 360V070 9999 OVC025 06/01 Q1019 BLU NOSIG
09:25
M
6 °C 10 km+ 2.500 ft 040° 040° 5 kt METAR EHKD 270825Z AUTO 04005KT 360V070 9999 BKN025 06/01 Q1019 BLU NOSIG
08:55
M
6 °C 10 km+ 2.300 ft 050° 050° 7 kt METAR EHKD 270755Z AUTO 05007KT 360V100 9999 OVC023 06/01 Q1019 WHT NOSIG
08:25
M
6 °C 10 km+ 2.400 ft 020° 020° 6 kt METAR EHKD 270725Z AUTO 02006KT 340V050 9999 OVC024 06/01 Q1019 WHT NOSIG
07:55
M
6 °C 10 km+ 2.600 ft 030° 030° 7 kt METAR EHKD 270655Z AUTO 03007KT 360V070 9999 OVC026 06/00 Q1019 BLU NOSIG
07:27
M
6 °C 10 km+ 2.500 ft 020° 020° 8 kt METAR EHKD 270627Z AUTO 02008KT 350V060 9999 OVC025 06/00 Q1019 BLU NOSIG
07:25
M
6 °C 10 km+ 2.400 ft 020° 020° 7 kt METAR EHKD 270625Z AUTO 02007KT 350V060 9999 BKN024 OVC027 06/01 Q1019 WHT NOSIG
07:07
M
6 °C 10 km+ 2.400 ft 030° 030° 7 kt METAR EHKD 270607Z AUTO 03007KT 350V080 9999 OVC024 06/01 Q1019 WHT NOSIG
07:03
M
6 °C 10 km+ 2.500 ft 030° 030° 6 kt METAR EHKD 270603Z AUTO 03006KT 350V080 9999 OVC025 06/01 Q1019 BLU NOSIG
06:55
M
6 °C 10 km+ 2.500 ft 040° 040° 7 kt METAR EHKD 270555Z AUTO 04007KT 010V070 9999 OVC025 06/01 Q1019 BLU NOSIG